sensor_id;sensor_type;location;lat;lon;timestamp;pressure;altitude;pressure_sealevel;temperature;humidity
5905;BME280;2978;42.012;24.880;2022-10-31T00:01:30;99011.94;;;16.75;50.72
5905;BME280;2978;42.012;24.880;2022-10-31T00:03:56;99006.59;;;16.78;50.69
5905;BME280;2978;42.012;24.880;2022-10-31T00:06:22;99016.44;;;16.84;50.46
5905;BME280;2978;42.012;24.880;2022-10-31T00:08:53;99008.94;;;16.85;50.53
5905;BME280;2978;42.012;24.880;2022-10-31T00:11:18;99016.06;;;16.91;50.27
5905;BME280;2978;42.012;24.880;2022-10-31T00:13:44;99014.41;;;16.76;50.27
5905;BME280;2978;42.012;24.880;2022-10-31T00:16:17;99005.47;;;16.66;50.74
5905;BME280;2978;42.012;24.880;2022-10-31T00:18:43;99016.66;;;16.61;51.04
5905;BME280;2978;42.012;24.880;2022-10-31T00:21:09;99011.38;;;16.46;51.51
5905;BME280;2978;42.012;24.880;2022-10-31T00:23:34;99013.72;;;16.39;51.86
5905;BME280;2978;42.012;24.880;2022-10-31T00:26:04;99010.44;;;16.37;52.02
5905;BME280;2978;42.012;24.880;2022-10-31T00:28:30;99011.88;;;16.21;52.32
5905;BME280;2978;42.012;24.880;2022-10-31T00:31:04;99018.03;;;16.18;52.71
5905;BME280;2978;42.012;24.880;2022-10-31T00:33:30;99006.22;;;16.26;52.28
5905;BME280;2978;42.012;24.880;2022-10-31T00:35:56;99005.25;;;16.17;52.36
5905;BME280;2978;42.012;24.880;2022-10-31T00:38:21;98997.88;;;16.12;52.67
5905;BME280;2978;42.012;24.880;2022-10-31T00:40:47;98986.47;;;16.14;52.38
5905;BME280;2978;42.012;24.880;2022-10-31T00:43:12;99003.13;;;16.14;52.90
5905;BME280;2978;42.012;24.880;2022-10-31T00:45:38;98999.28;;;16.10;53.02
5905;BME280;2978;42.012;24.880;2022-10-31T00:48:04;99011.44;;;16.14;52.81
5905;BME280;2978;42.012;24.880;2022-10-31T00:50:30;99014.63;;;16.21;52.82
5905;BME280;2978;42.012;24.880;2022-10-31T00:52:55;99018.03;;;16.18;53.09
5905;BME280;2978;42.012;24.880;2022-10-31T00:55:22;99000.56;;;16.17;53.38
5905;BME280;2978;42.012;24.880;2022-10-31T00:57:47;99006.53;;;16.24;53.11
5905;BME280;2978;42.012;24.880;2022-10-31T01:00:13;98995.31;;;16.29;53.09
5905;BME280;2978;42.012;24.880;2022-10-31T01:02:38;99013.34;;;16.45;52.41
5905;BME280;2978;42.012;24.880;2022-10-31T01:05:04;99002.38;;;16.54;52.50
5905;BME280;2978;42.012;24.880;2022-10-31T01:07:30;99004.63;;;16.52;52.17
5905;BME280;2978;42.012;24.880;2022-10-31T01:09:55;99008.53;;;16.51;51.83
5905;BME280;2978;42.012;24.880;2022-10-31T01:12:20;99010.03;;;16.43;52.33
5905;BME280;2978;42.012;24.880;2022-10-31T01:14:46;99012.50;;;16.45;52.49
5905;BME280;2978;42.012;24.880;2022-10-31T01:17:12;99005.31;;;16.44;52.30
5905;BME280;2978;42.012;24.880;2022-10-31T01:19:38;99004.28;;;16.40;52.28
5905;BME280;2978;42.012;24.880;2022-10-31T01:22:04;99005.16;;;16.54;52.02
5905;BME280;2978;42.012;24.880;2022-10-31T01:24:29;98992.50;;;16.61;52.33
5905;BME280;2978;42.012;24.880;2022-10-31T01:26:54;98997.66;;;16.68;52.02
5905;BME280;2978;42.012;24.880;2022-10-31T01:29:20;98985.50;;;16.77;51.69
5905;BME280;2978;42.012;24.880;2022-10-31T01:31:45;98984.34;;;16.92;51.20
5905;BME280;2978;42.012;24.880;2022-10-31T01:34:15;98994.03;;;16.81;51.51
5905;BME280;2978;42.012;24.880;2022-10-31T01:36:42;98972.31;;;16.83;51.83
5905;BME280;2978;42.012;24.880;2022-10-31T01:39:14;98967.28;;;16.85;51.70
5905;BME280;2978;42.012;24.880;2022-10-31T01:41:43;98977.25;;;16.86;51.40
5905;BME280;2978;42.012;24.880;2022-10-31T01:49:33;98978.09;;;16.73;51.74
5905;BME280;2978;42.012;24.880;2022-10-31T01:54:37;98977.59;;;16.71;52.13
5905;BME280;2978;42.012;24.880;2022-10-31T01:57:05;98997.34;;;16.69;52.25
5905;BME280;2978;42.012;24.880;2022-10-31T01:59:35;98962.28;;;16.73;51.91
5905;BME280;2978;42.012;24.880;2022-10-31T02:02:03;98987.44;;;16.63;52.35
5905;BME280;2978;42.012;24.880;2022-10-31T02:04:29;98988.69;;;16.71;52.51
5905;BME280;2978;42.012;24.880;2022-10-31T02:07:08;98966.47;;;16.71;52.13
5905;BME280;2978;42.012;24.880;2022-10-31T02:09:36;98973.88;;;16.75;52.00
5905;BME280;2978;42.012;24.880;2022-10-31T02:12:03;98966.97;;;16.86;51.78
5905;BME280;2978;42.012;24.880;2022-10-31T02:14:30;98973.66;;;16.85;51.74
5905;BME280;2978;42.012;24.880;2022-10-31T02:16:57;98981.09;;;16.76;52.17
5905;BME280;2978;42.012;24.880;2022-10-31T02:19:32;98992.91;;;16.68;51.97
5905;BME280;2978;42.012;24.880;2022-10-31T02:22:17;99000.84;;;16.75;52.09
5905;BME280;2978;42.012;24.880;2022-10-31T02:24:52;98986.84;;;16.80;51.67
5905;BME280;2978;42.012;24.880;2022-10-31T02:30:23;98983.53;;;16.78;52.10
5905;BME280;2978;42.012;24.880;2022-10-31T02:43:39;98993.53;;;16.52;53.22
5905;BME280;2978;42.012;24.880;2022-10-31T02:46:17;98975.91;;;16.43;53.37
5905;BME280;2978;42.012;24.880;2022-10-31T02:48:45;98976.13;;;16.33;53.91
5905;BME280;2978;42.012;24.880;2022-10-31T02:51:14;98993.38;;;16.30;54.25
5905;BME280;2978;42.012;24.880;2022-10-31T02:53:41;98971.19;;;16.30;53.87
5905;BME280;2978;42.012;24.880;2022-10-31T02:56:12;98980.84;;;16.32;54.34
5905;BME280;2978;42.012;24.880;2022-10-31T02:58:59;98970.88;;;16.45;54.08
5905;BME280;2978;42.012;24.880;2022-10-31T03:07:08;98982.00;;;16.72;53.10
5905;BME280;2978;42.012;24.880;2022-10-31T03:09:51;98987.25;;;16.87;52.84
5905;BME280;2978;42.012;24.880;2022-10-31T03:12:29;98999.34;;;17.05;52.65
5905;BME280;2978;42.012;24.880;2022-10-31T03:17:37;98984.84;;;17.43;51.32
5905;BME280;2978;42.012;24.880;2022-10-31T03:20:06;98993.16;;;17.57;51.04
5905;BME280;2978;42.012;24.880;2022-10-31T03:22:35;98994.72;;;17.71;50.27
5905;BME280;2978;42.012;24.880;2022-10-31T03:25:04;98992.34;;;17.78;49.99
5905;BME280;2978;42.012;24.880;2022-10-31T03:27:33;99010.38;;;17.81;50.16
5905;BME280;2978;42.012;24.880;2022-10-31T03:30:02;99001.69;;;17.82;50.11
5905;BME280;2978;42.012;24.880;2022-10-31T03:32:36;99013.72;;;17.91;50.26
5905;BME280;2978;42.012;24.880;2022-10-31T03:35:04;99033.44;;;18.04;49.50
5905;BME280;2978;42.012;24.880;2022-10-31T03:37:32;99030.97;;;18.02;49.46
5905;BME280;2978;42.012;24.880;2022-10-31T03:40:00;99024.59;;;18.02;49.72
5905;BME280;2978;42.012;24.880;2022-10-31T03:42:31;99034.69;;;17.97;49.86
5905;BME280;2978;42.012;24.880;2022-10-31T03:45:04;99028.47;;;17.92;49.65
5905;BME280;2978;42.012;24.880;2022-10-31T03:47:32;99033.50;;;17.90;49.72
5905;BME280;2978;42.012;24.880;2022-10-31T03:49:59;99034.94;;;17.87;50.56
5905;BME280;2978;42.012;24.880;2022-10-31T03:55:13;99046.22;;;17.82;50.08
5905;BME280;2978;42.012;24.880;2022-10-31T04:00:16;99039.13;;;17.76;49.97
5905;BME280;2978;42.012;24.880;2022-10-31T04:03:18;99042.41;;;17.78;50.21
5905;BME280;2978;42.012;24.880;2022-10-31T04:05:47;99037.88;;;17.82;50.03
5905;BME280;2978;42.012;24.880;2022-10-31T04:08:17;99040.78;;;17.77;50.25
5905;BME280;2978;42.012;24.880;2022-10-31T04:10:47;99041.16;;;17.62;50.55
5905;BME280;2978;42.012;24.880;2022-10-31T04:13:17;99054.53;;;17.60;50.51
5905;BME280;2978;42.012;24.880;2022-10-31T04:15:45;99046.50;;;17.59;51.10
5905;BME280;2978;42.012;24.880;2022-10-31T04:18:11;99052.34;;;17.57;51.21
5905;BME280;2978;42.012;24.880;2022-10-31T04:20:39;99055.97;;;17.58;51.01
5905;BME280;2978;42.012;24.880;2022-10-31T04:23:22;99051.16;;;17.50;51.38
5905;BME280;2978;42.012;24.880;2022-10-31T04:25:49;99065.09;;;17.72;51.37
5905;BME280;2978;42.012;24.880;2022-10-31T04:28:14;99075.91;;;17.73;50.93
5905;BME280;2978;42.012;24.880;2022-10-31T04:30:40;99073.50;;;17.80;50.45
5905;BME280;2978;42.012;24.880;2022-10-31T04:33:05;99082.75;;;17.89;50.36
5905;BME280;2978;42.012;24.880;2022-10-31T04:35:31;99077.19;;;17.89;50.32
5905;BME280;2978;42.012;24.880;2022-10-31T04:37:56;99075.03;;;17.86;50.19
5905;BME280;2978;42.012;24.880;2022-10-31T04:40:22;99078.47;;;17.83;50.29
5905;BME280;2978;42.012;24.880;2022-10-31T04:42:47;99079.50;;;17.74;50.51
5905;BME280;2978;42.012;24.880;2022-10-31T04:45:12;99084.16;;;17.65;50.95
5905;BME280;2978;42.012;24.880;2022-10-31T04:47:38;99086.94;;;17.65;50.91
5905;BME280;2978;42.012;24.880;2022-10-31T04:50:04;99084.81;;;17.62;51.28
5905;BME280;2978;42.012;24.880;2022-10-31T04:52:29;99089.78;;;17.51;51.45
5905;BME280;2978;42.012;24.880;2022-10-31T04:54:55;99085.16;;;17.47;51.57
5905;BME280;2978;42.012;24.880;2022-10-31T04:57:20;99092.94;;;17.45;51.76
5905;BME280;2978;42.012;24.880;2022-10-31T04:59:46;99102.22;;;17.40;51.72
5905;BME280;2978;42.012;24.880;2022-10-31T05:02:11;99097.91;;;17.34;52.26
5905;BME280;2978;42.012;24.880;2022-10-31T05:04:36;99085.13;;;17.33;52.22
5905;BME280;2978;42.012;24.880;2022-10-31T05:07:02;99105.94;;;17.49;51.92
5905;BME280;2978;42.012;24.880;2022-10-31T05:09:27;99102.03;;;17.50;51.86
5905;BME280;2978;42.012;24.880;2022-10-31T05:11:53;99112.53;;;17.53;52.25
5905;BME280;2978;42.012;24.880;2022-10-31T05:14:18;99113.53;;;17.57;51.93
5905;BME280;2978;42.012;24.880;2022-10-31T05:16:43;99128.78;;;17.60;51.79
5905;BME280;2978;42.012;24.880;2022-10-31T05:19:09;99132.91;;;17.62;52.07
5905;BME280;2978;42.012;24.880;2022-10-31T05:21:35;99133.31;;;17.69;51.70
5905;BME280;2978;42.012;24.880;2022-10-31T05:24:01;99134.69;;;17.80;51.38
5905;BME280;2978;42.012;24.880;2022-10-31T05:26:26;99141.25;;;17.98;50.96
5905;BME280;2978;42.012;24.880;2022-10-31T05:28:52;99139.94;;;17.95;50.87
5905;BME280;2978;42.012;24.880;2022-10-31T05:31:17;99134.25;;;18.01;50.76
5905;BME280;2978;42.012;24.880;2022-10-31T05:33:43;99128.91;;;17.90;50.82
5905;BME280;2978;42.012;24.880;2022-10-31T05:36:08;99146.88;;;18.07;50.40
5905;BME280;2978;42.012;24.880;2022-10-31T05:38:34;99141.00;;;18.08;50.74
5905;BME280;2978;42.012;24.880;2022-10-31T05:40:59;99146.75;;;18.12;50.54
5905;BME280;2978;42.012;24.880;2022-10-31T05:43:28;99150.44;;;18.21;50.34
5905;BME280;2978;42.012;24.880;2022-10-31T05:45:54;99144.88;;;18.21;50.49
5905;BME280;2978;42.012;24.880;2022-10-31T05:48:20;99150.81;;;18.28;50.35
5905;BME280;2978;42.012;24.880;2022-10-31T05:50:47;99153.47;;;18.33;50.18
5905;BME280;2978;42.012;24.880;2022-10-31T05:53:13;99150.69;;;18.33;50.27
5905;BME280;2978;42.012;24.880;2022-10-31T05:55:38;99153.47;;;18.33;50.07
5905;BME280;2978;42.012;24.880;2022-10-31T05:58:06;99149.78;;;18.37;50.08
5905;BME280;2978;42.012;24.880;2022-10-31T06:00:31;99141.41;;;18.37;49.98
5905;BME280;2978;42.012;24.880;2022-10-31T06:03:04;99151.09;;;18.40;50.31
5905;BME280;2978;42.012;24.880;2022-10-31T06:05:30;99151.94;;;18.40;49.99
5905;BME280;2978;42.012;24.880;2022-10-31T06:07:56;99173.06;;;18.41;49.72
5905;BME280;2978;42.012;24.880;2022-10-31T06:10:22;99171.63;;;18.44;49.97
5905;BME280;2978;42.012;24.880;2022-10-31T06:12:47;99181.19;;;18.51;49.77
5905;BME280;2978;42.012;24.880;2022-10-31T06:15:13;99184.28;;;18.72;49.57
5905;BME280;2978;42.012;24.880;2022-10-31T06:17:39;99184.00;;;18.82;49.29
5905;BME280;2978;42.012;24.880;2022-10-31T06:20:05;99189.94;;;18.89;49.01
5905;BME280;2978;42.012;24.880;2022-10-31T06:22:31;99196.91;;;19.00;48.84
5905;BME280;2978;42.012;24.880;2022-10-31T06:24:56;99198.91;;;19.08;48.48
5905;BME280;2978;42.012;24.880;2022-10-31T06:27:22;99199.09;;;19.12;48.61
5905;BME280;2978;42.012;24.880;2022-10-31T06:29:48;99194.72;;;19.19;48.31
5905;BME280;2978;42.012;24.880;2022-10-31T06:32:13;99197.00;;;19.17;48.58
5905;BME280;2978;42.012;24.880;2022-10-31T06:34:39;99199.78;;;19.17;48.47
5905;BME280;2978;42.012;24.880;2022-10-31T06:37:06;99202.25;;;19.19;48.26
5905;BME280;2978;42.012;24.880;2022-10-31T06:39:32;99204.06;;;19.23;48.35
5905;BME280;2978;42.012;24.880;2022-10-31T06:41:58;99193.41;;;19.25;48.02
5905;BME280;2978;42.012;24.880;2022-10-31T06:44:23;99201.66;;;19.30;47.96
5905;BME280;2978;42.012;24.880;2022-10-31T06:46:49;99203.41;;;19.18;48.47
5905;BME280;2978;42.012;24.880;2022-10-31T06:49:14;99203.59;;;19.21;48.40
5905;BME280;2978;42.012;24.880;2022-10-31T06:51:40;99209.34;;;19.25;48.45
5905;BME280;2978;42.012;24.880;2022-10-31T06:54:05;99218.31;;;19.44;47.94
5905;BME280;2978;42.012;24.880;2022-10-31T06:56:31;99214.94;;;19.64;47.46
5905;BME280;2978;42.012;24.880;2022-10-31T06:58:56;99204.47;;;19.78;46.97
5905;BME280;2978;42.012;24.880;2022-10-31T07:01:22;99215.50;;;20.00;46.68
5905;BME280;2978;42.012;24.880;2022-10-31T07:03:47;99200.44;;;20.09;46.23
5905;BME280;2978;42.012;24.880;2022-10-31T07:06:13;99199.66;;;20.17;46.14
5905;BME280;2978;42.012;24.880;2022-10-31T07:08:38;99200.81;;;20.17;46.07
5905;BME280;2978;42.012;24.880;2022-10-31T07:11:04;99202.75;;;20.16;46.57
5905;BME280;2978;42.012;24.880;2022-10-31T07:13:29;99202.44;;;20.17;46.05
5905;BME280;2978;42.012;24.880;2022-10-31T07:15:59;99195.22;;;20.25;45.95
5905;BME280;2978;42.012;24.880;2022-10-31T07:18:25;99199.00;;;20.29;45.91
5905;BME280;2978;42.012;24.880;2022-10-31T07:20:52;99190.31;;;20.39;45.43
5905;BME280;2978;42.012;24.880;2022-10-31T07:23:17;99196.19;;;20.63;45.08
5905;BME280;2978;42.012;24.880;2022-10-31T07:25:43;99192.41;;;20.85;44.21
5905;BME280;2978;42.012;24.880;2022-10-31T07:28:09;99194.50;;;21.05;44.32
5905;BME280;2978;42.012;24.880;2022-10-31T07:30:36;99193.13;;;21.28;43.55
5905;BME280;2978;42.012;24.880;2022-10-31T07:33:02;99193.91;;;21.37;43.37
5905;BME280;2978;42.012;24.880;2022-10-31T07:35:28;99194.13;;;21.23;43.28
5905;BME280;2978;42.012;24.880;2022-10-31T07:37:54;99194.63;;;21.17;43.78
5905;BME280;2978;42.012;24.880;2022-10-31T07:40:20;99207.94;;;21.29;43.96
5905;BME280;2978;42.012;24.880;2022-10-31T07:42:51;99208.44;;;21.22;43.17
5905;BME280;2978;42.012;24.880;2022-10-31T07:45:19;99214.22;;;21.17;44.20
5905;BME280;2978;42.012;24.880;2022-10-31T07:47:52;99209.63;;;21.12;44.07
5905;BME280;2978;42.012;24.880;2022-10-31T07:50:20;99207.31;;;21.14;44.18
5905;BME280;2978;42.012;24.880;2022-10-31T07:52:46;99204.66;;;21.27;44.11
5905;BME280;2978;42.012;24.880;2022-10-31T07:55:12;99209.19;;;21.40;43.99
5905;BME280;2978;42.012;24.880;2022-10-31T07:57:37;99205.06;;;21.46;43.85
5905;BME280;2978;42.012;24.880;2022-10-31T08:00:04;99206.50;;;21.52;43.80
5905;BME280;2978;42.012;24.880;2022-10-31T08:02:30;99211.75;;;21.62;43.39
5905;BME280;2978;42.012;24.880;2022-10-31T08:04:55;99203.03;;;21.63;43.71
5905;BME280;2978;42.012;24.880;2022-10-31T08:07:21;99209.94;;;21.57;43.60
5905;BME280;2978;42.012;24.880;2022-10-31T08:09:47;99208.22;;;21.73;43.32
5905;BME280;2978;42.012;24.880;2022-10-31T08:12:12;99200.66;;;21.82;43.46
5905;BME280;2978;42.012;24.880;2022-10-31T08:14:38;99205.31;;;21.99;43.25
5905;BME280;2978;42.012;24.880;2022-10-31T08:17:03;99205.03;;;22.12;42.83
5905;BME280;2978;42.012;24.880;2022-10-31T08:19:28;99209.31;;;22.18;43.01
5905;BME280;2978;42.012;24.880;2022-10-31T08:21:54;99211.41;;;22.42;42.82
5905;BME280;2978;42.012;24.880;2022-10-31T08:24:21;99208.53;;;22.59;42.44
5905;BME280;2978;42.012;24.880;2022-10-31T08:26:46;99214.66;;;22.73;41.50
5905;BME280;2978;42.012;24.880;2022-10-31T08:29:12;99196.38;;;22.88;41.57
5905;BME280;2978;42.012;24.880;2022-10-31T08:31:38;99203.44;;;23.06;41.69
5905;BME280;2978;42.012;24.880;2022-10-31T08:34:03;99204.19;;;23.27;40.99
5905;BME280;2978;42.012;24.880;2022-10-31T08:36:29;99206.13;;;23.35;40.47
5905;BME280;2978;42.012;24.880;2022-10-31T08:38:54;99207.31;;;23.46;40.23
5905;BME280;2978;42.012;24.880;2022-10-31T08:41:20;99202.88;;;23.57;39.99
5905;BME280;2978;42.012;24.880;2022-10-31T08:46:29;99208.03;;;23.79;39.36
5905;BME280;2978;42.012;24.880;2022-10-31T08:48:54;99206.72;;;23.89;38.65
5905;BME280;2978;42.012;24.880;2022-10-31T08:51:19;99196.22;;;24.10;38.56
5905;BME280;2978;42.012;24.880;2022-10-31T08:53:45;99212.88;;;24.55;37.79
5905;BME280;2978;42.012;24.880;2022-10-31T08:56:10;99213.81;;;24.86;37.21
5905;BME280;2978;42.012;24.880;2022-10-31T08:58:36;99217.25;;;25.07;36.33
5905;BME280;2978;42.012;24.880;2022-10-31T09:01:01;99205.78;;;25.28;35.67
5905;BME280;2978;42.012;24.880;2022-10-31T09:03:30;99217.88;;;25.44;35.61
5905;BME280;2978;42.012;24.880;2022-10-31T09:06:01;99226.47;;;25.35;36.50
5905;BME280;2978;42.012;24.880;2022-10-31T09:08:30;99232.00;;;25.32;35.92
5905;BME280;2978;42.012;24.880;2022-10-31T09:10:56;99233.59;;;25.02;36.71
5905;BME280;2978;42.012;24.880;2022-10-31T09:13:22;99224.56;;;24.69;37.24
5905;BME280;2978;42.012;24.880;2022-10-31T09:15:49;99218.50;;;24.55;37.70
5905;BME280;2978;42.012;24.880;2022-10-31T09:18:17;99226.16;;;24.42;37.86
5905;BME280;2978;42.012;24.880;2022-10-31T09:20:44;99225.81;;;24.31;38.05
5905;BME280;2978;42.012;24.880;2022-10-31T09:23:13;99222.91;;;24.16;38.62
5905;BME280;2978;42.012;24.880;2022-10-31T09:25:39;99224.44;;;24.01;38.57
5905;BME280;2978;42.012;24.880;2022-10-31T09:28:07;99219.03;;;23.96;38.62
5905;BME280;2978;42.012;24.880;2022-10-31T09:30:35;99219.03;;;23.96;38.56
5905;BME280;2978;42.012;24.880;2022-10-31T09:33:05;99221.25;;;23.91;38.54
5905;BME280;2978;42.012;24.880;2022-10-31T09:35:31;99209.19;;;23.90;38.57
5905;BME280;2978;42.012;24.880;2022-10-31T09:37:59;99207.09;;;23.99;38.77
5905;BME280;2978;42.012;24.880;2022-10-31T09:40:35;99203.16;;;24.00;38.50
5905;BME280;2978;42.012;24.880;2022-10-31T09:45:32;99208.28;;;24.10;37.82
5905;BME280;2978;42.012;24.880;2022-10-31T09:48:13;99209.44;;;24.21;37.63
5905;BME280;2978;42.012;24.880;2022-10-31T09:50:53;99206.84;;;24.28;38.03
5905;BME280;2978;42.012;24.880;2022-10-31T09:55:53;99201.28;;;24.56;37.21
5905;BME280;2978;42.012;24.880;2022-10-31T09:58:23;99199.47;;;24.64;36.58
5905;BME280;2978;42.012;24.880;2022-10-31T10:00:49;99197.34;;;24.73;36.76
5905;BME280;2978;42.012;24.880;2022-10-31T10:03:37;99197.56;;;24.80;36.57
5905;BME280;2978;42.012;24.880;2022-10-31T10:06:14;99196.81;;;24.95;36.07
5905;BME280;2978;42.012;24.880;2022-10-31T10:08:41;99192.94;;;25.15;35.67
5905;BME280;2978;42.012;24.880;2022-10-31T10:11:41;99179.97;;;25.26;35.67
5905;BME280;2978;42.012;24.880;2022-10-31T10:25:21;99174.34;;;25.88;33.83
5905;BME280;2978;42.012;24.880;2022-10-31T10:27:55;99177.44;;;25.99;33.88
5905;BME280;2978;42.012;24.880;2022-10-31T10:33:08;99168.97;;;26.14;34.32
5905;BME280;2978;42.012;24.880;2022-10-31T10:35:42;99171.72;;;25.95;34.26
5905;BME280;2978;42.012;24.880;2022-10-31T10:40:40;99170.28;;;25.70;35.33
5905;BME280;2978;42.012;24.880;2022-10-31T10:43:19;99157.94;;;25.59;35.67
5905;BME280;2978;42.012;24.880;2022-10-31T10:46:26;99159.03;;;25.39;35.86
5905;BME280;2978;42.012;24.880;2022-10-31T10:49:49;99160.47;;;25.33;35.49
5905;BME280;2978;42.012;24.880;2022-10-31T10:52:46;99165.19;;;25.29;35.20
5905;BME280;2978;42.012;24.880;2022-10-31T10:58:09;99164.97;;;25.22;35.47
5905;BME280;2978;42.012;24.880;2022-10-31T11:00:38;99151.19;;;25.17;35.57
5905;BME280;2978;42.012;24.880;2022-10-31T11:03:04;99156.06;;;25.20;35.56
5905;BME280;2978;42.012;24.880;2022-10-31T11:07:58;99154.06;;;25.05;36.08
5905;BME280;2978;42.012;24.880;2022-10-31T11:10:24;99146.56;;;25.09;35.58
5905;BME280;2978;42.012;24.880;2022-10-31T11:13:17;99150.16;;;25.09;35.52
5905;BME280;2978;42.012;24.880;2022-10-31T11:18:25;99147.91;;;25.15;35.79
5905;BME280;2978;42.012;24.880;2022-10-31T11:20:53;99154.91;;;25.21;35.77
5905;BME280;2978;42.012;24.880;2022-10-31T11:23:20;99150.38;;;25.32;35.87
5905;BME280;2978;42.012;24.880;2022-10-31T11:28:23;99139.13;;;25.47;34.98
5905;BME280;2978;42.012;24.880;2022-10-31T11:31:07;99131.88;;;25.62;34.35
5905;BME280;2978;42.012;24.880;2022-10-31T11:33:37;99134.38;;;25.83;34.84
5905;BME280;2978;42.012;24.880;2022-10-31T11:36:21;99125.88;;;25.98;33.60
5905;BME280;2978;42.012;24.880;2022-10-31T11:38:47;99121.16;;;26.02;34.18
5905;BME280;2978;42.012;24.880;2022-10-31T11:41:20;99134.16;;;26.07;34.18
5905;BME280;2978;42.012;24.880;2022-10-31T11:43:53;99128.25;;;25.96;34.16
5905;BME280;2978;42.012;24.880;2022-10-31T11:46:33;99122.44;;;25.89;34.43
5905;BME280;2978;42.012;24.880;2022-10-31T11:48:59;99120.66;;;25.81;34.43
5905;BME280;2978;42.012;24.880;2022-10-31T11:51:34;99124.00;;;25.87;34.30
5905;BME280;2978;42.012;24.880;2022-10-31T11:54:02;99118.47;;;25.90;35.04
5905;BME280;2978;42.012;24.880;2022-10-31T11:56:39;99122.97;;;25.95;34.73
5905;BME280;2978;42.012;24.880;2022-10-31T11:59:15;99128.06;;;25.89;34.42
5905;BME280;2978;42.012;24.880;2022-10-31T12:01:47;99112.66;;;25.83;34.84
5905;BME280;2978;42.012;24.880;2022-10-31T12:04:13;99117.25;;;25.91;34.99
5905;BME280;2978;42.012;24.880;2022-10-31T12:06:41;99115.63;;;25.90;34.71
5905;BME280;2978;42.012;24.880;2022-10-31T12:09:30;99109.47;;;25.85;34.77
5905;BME280;2978;42.012;24.880;2022-10-31T12:17:28;99124.66;;;25.80;35.12
5905;BME280;2978;42.012;24.880;2022-10-31T12:28:15;99126.41;;;25.69;34.59
5905;BME280;2978;42.012;24.880;2022-10-31T12:45:36;99111.75;;;26.14;34.41
5905;BME280;2978;42.012;24.880;2022-10-31T12:51:03;99120.47;;;26.24;33.72
5905;BME280;2978;42.012;24.880;2022-10-31T13:01:29;99116.19;;;26.30;33.41
5905;BME280;2978;42.012;24.880;2022-10-31T13:04:04;99108.88;;;26.29;33.24
5905;BME280;2978;42.012;24.880;2022-10-31T13:06:35;99104.91;;;26.30;33.42
5905;BME280;2978;42.012;24.880;2022-10-31T13:09:06;99105.28;;;26.29;33.84
5905;BME280;2978;42.012;24.880;2022-10-31T13:11:45;99106.06;;;26.29;33.38
5905;BME280;2978;42.012;24.880;2022-10-31T13:16:55;99104.88;;;26.11;34.07
5905;BME280;2978;42.012;24.880;2022-10-31T13:19:38;99107.94;;;26.22;33.61
5905;BME280;2978;42.012;24.880;2022-10-31T13:24:36;99095.97;;;26.28;33.78
5905;BME280;2978;42.012;24.880;2022-10-31T13:27:25;99110.69;;;26.37;34.05
5905;BME280;2978;42.012;24.880;2022-10-31T13:32:49;99099.41;;;26.37;34.34
5905;BME280;2978;42.012;24.880;2022-10-31T13:35:26;99101.47;;;26.40;33.71
5905;BME280;2978;42.012;24.880;2022-10-31T13:38:05;99096.28;;;26.42;34.04
5905;BME280;2978;42.012;24.880;2022-10-31T13:40:45;99094.63;;;26.41;33.75
5905;BME280;2978;42.012;24.880;2022-10-31T13:45:52;99095.16;;;26.28;33.97
5905;BME280;2978;42.012;24.880;2022-10-31T13:48:39;99099.84;;;26.20;33.89
5905;BME280;2978;42.012;24.880;2022-10-31T13:51:10;99110.97;;;26.13;34.26
5905;BME280;2978;42.012;24.880;2022-10-31T13:53:37;99097.13;;;26.08;34.76
5905;BME280;2978;42.012;24.880;2022-10-31T13:56:32;99102.63;;;26.01;34.44
5905;BME280;2978;42.012;24.880;2022-10-31T13:59:04;99096.53;;;25.99;34.43
5905;BME280;2978;42.012;24.880;2022-10-31T14:02:13;99100.13;;;26.00;34.56
5905;BME280;2978;42.012;24.880;2022-10-31T14:04:48;99088.63;;;25.89;35.01
5905;BME280;2978;42.012;24.880;2022-10-31T14:07:19;99095.84;;;25.87;34.85
5905;BME280;2978;42.012;24.880;2022-10-31T14:09:52;99092.47;;;25.81;35.22
5905;BME280;2978;42.012;24.880;2022-10-31T14:15:03;99096.31;;;25.73;34.84
5905;BME280;2978;42.012;24.880;2022-10-31T14:17:38;99091.41;;;25.70;34.82
5905;BME280;2978;42.012;24.880;2022-10-31T14:22:37;99103.09;;;25.88;35.19
5905;BME280;2978;42.012;24.880;2022-10-31T14:25:33;99106.72;;;25.88;35.78
5905;BME280;2978;42.012;24.880;2022-10-31T14:28:02;99110.28;;;25.85;36.09
5905;BME280;2978;42.012;24.880;2022-10-31T14:30:29;99107.03;;;25.83;36.10
5905;BME280;2978;42.012;24.880;2022-10-31T14:33:18;99102.38;;;25.75;36.46
5905;BME280;2978;42.012;24.880;2022-10-31T14:35:56;99108.13;;;25.63;36.58
5905;BME280;2978;42.012;24.880;2022-10-31T14:38:50;99107.97;;;25.56;36.67
5905;BME280;2978;42.012;24.880;2022-10-31T14:52:23;99115.94;;;25.07;38.18
5905;BME280;2978;42.012;24.880;2022-10-31T14:54:53;99116.84;;;24.96;38.39
5905;BME280;2978;42.012;24.880;2022-10-31T14:57:23;99110.81;;;24.82;38.97
5905;BME280;2978;42.012;24.880;2022-10-31T14:59:54;99124.59;;;24.71;39.42
5905;BME280;2978;42.012;24.880;2022-10-31T15:04:55;99114.78;;;24.53;40.21
5905;BME280;2978;42.012;24.880;2022-10-31T15:07:23;99111.25;;;24.40;40.18
5905;BME280;2978;42.012;24.880;2022-10-31T15:10:03;99110.09;;;24.29;40.51
5905;BME280;2978;42.012;24.880;2022-10-31T15:12:34;99125.13;;;24.21;40.75
5905;BME280;2978;42.012;24.880;2022-10-31T15:15:25;99121.28;;;24.14;40.59
5905;BME280;2978;42.012;24.880;2022-10-31T15:17:55;99127.25;;;24.12;40.30
5905;BME280;2978;42.012;24.880;2022-10-31T15:20:24;99131.72;;;24.01;40.93
5905;BME280;2978;42.012;24.880;2022-10-31T15:22:51;99136.50;;;23.89;41.03
5905;BME280;2978;42.012;24.880;2022-10-31T15:25:21;99131.03;;;23.80;41.07
5905;BME280;2978;42.012;24.880;2022-10-31T15:27:51;99129.63;;;23.74;40.89
5905;BME280;2978;42.012;24.880;2022-10-31T15:30:23;99136.66;;;23.56;41.57
5905;BME280;2978;42.012;24.880;2022-10-31T15:32:49;99140.66;;;23.55;41.25
5905;BME280;2978;42.012;24.880;2022-10-31T15:35:29;99134.22;;;23.55;41.48
5905;BME280;2978;42.012;24.880;2022-10-31T15:37:56;99144.50;;;23.51;41.54
5905;BME280;2978;42.012;24.880;2022-10-31T15:40:23;99138.06;;;23.50;41.84
5905;BME280;2978;42.012;24.880;2022-10-31T15:43:01;99142.03;;;23.49;41.53